Terminal Aerodrome Forecast
Issued by NWS

Current Version | Previous Version | Text Only | Print | Product List | Glossary Off
Versions: 1 2 3 4 5 6 7 8 9 10 11 12 13 14 15 16 17 18 19

000
FTUS41 KILN 190856 AAA
TAFLUK
TAF AMD
KLUK 190856Z 1909/2006 00000KT 1SM BR SCT050
      TEMPO 1909/1911 1/4SM FG BKN002
     FM191300 28004KT P6SM SCT050
     FM200000 00000KT P6SM SCT150=

USA.gov is the U.S. government's official web portal to all federal, state and local government web resources and services.